createdAt,value
2022-08-08T00:01:52.558Z,100466.13
2022-08-08T00:04:48.928Z,100458.41
2022-08-08T00:07:50.783Z,100466.66
2022-08-08T00:10:28.638Z,100465.59
2022-08-08T00:13:10.159Z,100473.41
2022-08-08T00:15:56.634Z,100465.34
2022-08-08T00:18:36.129Z,100475.72
2022-08-08T00:21:07.679Z,100469.00
2022-08-08T00:23:54.610Z,100478.41
2022-08-08T00:26:36.487Z,100476.75
2022-08-08T00:29:17.465Z,100477.03
2022-08-08T00:32:34.503Z,100473.91
2022-08-08T00:35:30.069Z,100490.97
2022-08-08T00:38:16.679Z,100477.88
2022-08-08T00:41:17.942Z,100482.03
2022-08-08T00:44:11.321Z,100483.38
2022-08-08T00:47:37.094Z,100484.91
2022-08-08T00:50:56.912Z,100479.91
2022-08-08T00:54:04.298Z,100487.19
2022-08-08T00:57:23.449Z,100490.97
2022-08-08T01:00:11.276Z,100491.25
2022-08-08T01:03:59.627Z,100482.72
2022-08-08T01:06:00.899Z,100478.31
2022-08-08T01:08:46.716Z,100470.56
2022-08-08T01:11:22.694Z,100471.78
2022-08-08T01:14:04.159Z,100474.94
2022-08-08T01:17:06.730Z,100470.63
2022-08-08T01:20:03.003Z,100473.78
2022-08-08T01:23:06.365Z,100472.38
2022-08-08T01:26:02.218Z,100472.94
2022-08-08T01:29:02.950Z,100477.72
2022-08-08T01:32:15.143Z,100470.22
2022-08-08T01:35:11.831Z,100474.25
2022-08-08T01:37:59.023Z,100480.13
2022-08-08T01:41:05.889Z,100473.56
2022-08-08T01:43:59.268Z,100470.50
2022-08-08T01:47:05.943Z,100477.44
2022-08-08T01:50:21.241Z,100480.59
2022-08-08T01:55:15.914Z,100476.19
2022-08-08T01:56:28.417Z,100475.47
2022-08-08T01:58:48.782Z,100477.72
2022-08-08T02:01:54.681Z,100477.91
2022-08-08T02:04:35.804Z,100476.25
2022-08-08T02:07:24.183Z,100484.25
2022-08-08T02:10:29.914Z,100477.44
2022-08-08T02:13:52.545Z,100478.66
2022-08-08T02:16:21.070Z,100485.19
2022-08-08T02:19:00.475Z,100485.97
2022-08-08T02:22:17.641Z,100481.53
2022-08-08T02:24:52.558Z,100495.25
2022-08-08T02:27:42.180Z,100477.47
2022-08-08T02:30:25.730Z,100490.72
2022-08-08T02:34:00.109Z,100498.03
2022-08-08T02:36:46.628Z,100492.66
2022-08-08T02:39:40.960Z,100488.41
2022-08-08T02:43:00.681Z,100488.81
2022-08-08T02:45:51.747Z,100493.38
2022-08-08T02:48:51.042Z,100487.72
2022-08-08T02:51:59.727Z,100485.22
2022-08-08T02:54:38.219Z,100494.63
2022-08-08T02:57:44.372Z,100483.66
2022-08-08T03:00:31.829Z,100496.22
2022-08-08T03:05:00.882Z,100493.47
2022-08-08T03:06:34.945Z,100498.09
2022-08-08T03:09:41.405Z,100505.06
2022-08-08T03:12:17.912Z,100503.84
2022-08-08T03:16:00.904Z,100509.38
2022-08-08T03:18:30.761Z,100522.78
2022-08-08T03:21:09.497Z,100517.72
2022-08-08T03:23:54.728Z,100528.28
2022-08-08T03:26:42.818Z,100527.94
2022-08-08T03:29:26.738Z,100533.56
2022-08-08T03:32:14.128Z,100532.97
2022-08-08T03:34:41.745Z,100526.72
2022-08-08T03:37:59.890Z,100532.28
2022-08-08T03:40:06.645Z,100537.63
2022-08-08T03:42:45.660Z,100542.78
2022-08-08T03:46:05.746Z,100527.75
2022-08-08T03:48:21.345Z,100547.66
2022-08-08T03:51:06.876Z,100535.53
2022-08-08T03:53:42.562Z,100545.75
2022-08-08T03:56:31.873Z,100548.81
2022-08-08T03:59:02.680Z,100548.88
2022-08-08T04:02:22.882Z,100547.00
2022-08-08T04:04:30.702Z,100548.59
2022-08-08T04:07:01.284Z,100560.63
2022-08-08T04:09:59.877Z,100550.97
2022-08-08T04:12:22.816Z,100545.56
2022-08-08T04:14:51.035Z,100550.25
2022-08-08T04:17:46.051Z,100553.34
2022-08-08T04:20:08.281Z,100545.38
2022-08-08T04:22:36.962Z,100552.66
2022-08-08T04:25:07.673Z,100558.53
2022-08-08T04:28:02.451Z,100556.22
2022-08-08T04:30:24.875Z,100549.47
2022-08-08T04:32:53.556Z,100539.13
2022-08-08T04:35:23.917Z,100548.03
2022-08-08T04:37:54.512Z,100548.84
2022-08-08T04:40:26.955Z,100551.38
2022-08-08T04:43:00.754Z,100551.38
2022-08-08T04:45:44.776Z,100557.66
2022-08-08T04:48:14.907Z,100556.44
2022-08-08T04:50:46.118Z,100560.50
2022-08-08T04:54:36.618Z,100558.88
2022-08-08T04:56:09.004Z,100555.69
2022-08-08T04:58:36.645Z,100557.25
2022-08-08T05:01:10.718Z,100556.56
2022-08-08T05:04:07.906Z,100563.34
2022-08-08T05:06:36.290Z,100574.47
2022-08-08T05:09:07.145Z,100565.25
2022-08-08T05:11:39.305Z,100572.34
2022-08-08T05:14:12.313Z,100566.97
2022-08-08T05:16:52.408Z,100574.13
2022-08-08T05:20:10.985Z,100586.28
2022-08-08T05:22:17.442Z,100587.75
2022-08-08T05:24:48.628Z,100591.06
2022-08-08T05:27:17.800Z,100580.72
2022-08-08T05:29:45.917Z,100576.84
2022-08-08T05:32:26.911Z,100572.31
2022-08-08T05:34:58.648Z,100582.00
2022-08-08T05:37:49.279Z,100583.56
2022-08-08T05:40:21.484Z,100589.59
2022-08-08T05:43:38.151Z,100591.78
2022-08-08T05:46:03.007Z,100590.56
2022-08-08T05:48:34.574Z,100596.06
2022-08-08T05:51:13.366Z,100600.84
2022-08-08T05:54:25.167Z,100603.41
2022-08-08T05:56:42.534Z,100602.75
2022-08-08T05:59:59.937Z,100605.25
2022-08-08T06:02:48.709Z,100616.88
2022-08-08T06:05:35.100Z,100616.94
2022-08-08T06:08:28.340Z,100613.00
2022-08-08T06:11:05.073Z,100620.25
2022-08-08T06:13:36.300Z,100631.75
2022-08-08T06:16:19.121Z,100630.09
2022-08-08T06:19:01.746Z,100633.72
2022-08-08T06:21:51.296Z,100638.97
2022-08-08T06:24:30.241Z,100638.88
2022-08-08T06:27:09.688Z,100648.59
2022-08-08T06:30:02.002Z,100645.59
2022-08-08T06:32:47.710Z,100645.75
2022-08-08T06:36:04.073Z,100647.97
2022-08-08T06:38:14.528Z,100648.13
2022-08-08T06:40:48.452Z,100650.75
2022-08-08T06:43:30.665Z,100645.56
2022-08-08T06:46:12.690Z,100650.53
2022-08-08T06:48:42.691Z,100655.28
2022-08-08T06:51:14.242Z,100656.28
2022-08-08T06:53:50.754Z,100662.00
2022-08-08T06:56:25.246Z,100656.13
2022-08-08T06:58:54.514Z,100649.69
2022-08-08T07:02:27.954Z,100654.59
2022-08-08T07:04:38.540Z,100655.44
2022-08-08T07:07:18.872Z,100656.72
2022-08-08T07:10:10.011Z,100657.22
2022-08-08T07:12:48.027Z,100655.94
2022-08-08T07:16:04.532Z,100666.66
2022-08-08T07:18:40.709Z,100664.47
2022-08-08T07:21:19.007Z,100662.56
2022-08-08T07:24:04.400Z,100662.25
2022-08-08T07:26:53.038Z,100671.31
2022-08-08T07:30:01.618Z,100663.50
2022-08-08T07:32:15.777Z,100663.16
2022-08-08T07:35:00.738Z,100671.38
2022-08-08T07:37:49.675Z,100673.97
2022-08-08T07:40:32.620Z,100677.63
2022-08-08T07:43:09.658Z,100667.75
2022-08-08T07:46:05.133Z,100677.53
2022-08-08T07:48:33.242Z,100673.34
2022-08-08T07:51:02.670Z,100669.63
2022-08-08T07:54:01.022Z,100673.28
2022-08-08T07:56:41.901Z,100668.13
2022-08-08T07:59:15.274Z,100672.50
2022-08-08T08:02:33.631Z,100674.09
2022-08-08T08:04:49.111Z,100670.34
2022-08-08T08:07:26.101Z,100667.78
2022-08-08T08:10:05.278Z,100667.78
2022-08-08T08:12:43.405Z,100674.53
2022-08-08T08:15:18.362Z,100663.78
2022-08-08T08:17:56.074Z,100674.53
2022-08-08T08:20:30.396Z,100669.91
2022-08-08T08:23:00.642Z,100669.19
2022-08-08T08:25:43.838Z,100669.34
2022-08-08T08:28:21.396Z,100668.59
2022-08-08T08:30:54.351Z,100671.94
2022-08-08T08:33:25.620Z,100671.31
2022-08-08T08:36:19.845Z,100667.19
2022-08-08T08:38:49.076Z,100657.44
2022-08-08T08:41:23.945Z,100658.25
2022-08-08T08:44:13.262Z,100660.69
2022-08-08T08:46:44.031Z,100667.72
2022-08-08T08:49:14.800Z,100653.50
2022-08-08T08:51:51.253Z,100667.34
2022-08-08T08:54:25.319Z,100666.00
2022-08-08T08:56:56.152Z,100657.78
2022-08-08T08:59:57.571Z,100659.34
2022-08-08T09:02:26.512Z,100658.13
2022-08-08T09:04:59.439Z,100658.66
2022-08-08T09:07:39.148Z,100648.25
2022-08-08T09:10:18.351Z,100654.03
2022-08-08T09:12:50.518Z,100643.91
2022-08-08T09:15:37.125Z,100640.59
2022-08-08T09:18:06.120Z,100640.31
2022-08-08T09:21:57.186Z,100632.44
2022-08-08T09:23:25.406Z,100639.94
2022-08-08T09:26:03.330Z,100653.13
2022-08-08T09:28:39.553Z,100649.19
2022-08-08T09:31:24.311Z,100637.91
2022-08-08T09:34:31.261Z,100651.97
2022-08-08T09:37:29.178Z,100637.56
2022-08-08T09:40:04.441Z,100639.50
2022-08-08T09:43:01.881Z,100639.78
2022-08-08T09:45:54.751Z,100638.38
2022-08-08T09:48:35.449Z,100645.94
2022-08-08T09:51:05.033Z,100632.56
2022-08-08T09:54:00.097Z,100639.28
2022-08-08T09:56:40.925Z,100626.31
2022-08-08T09:59:40.480Z,100636.00
2022-08-08T10:02:12.209Z,100636.94
2022-08-08T10:04:48.088Z,100619.22
2022-08-08T10:07:17.273Z,100628.75
2022-08-08T10:09:58.911Z,100629.44
2022-08-08T10:12:38.886Z,100625.69
2022-08-08T10:15:22.471Z,100621.47
2022-08-08T10:18:05.474Z,100617.34
2022-08-08T10:20:57.575Z,100620.31
2022-08-08T10:23:55.544Z,100621.66
2022-08-08T10:26:52.276Z,100621.34
2022-08-08T10:29:24.994Z,100622.13
2022-08-08T10:32:16.396Z,100623.84
2022-08-08T10:34:57.109Z,100621.03
2022-08-08T10:37:34.725Z,100610.25
2022-08-08T10:40:16.104Z,100621.38
2022-08-08T10:42:45.914Z,100605.72
2022-08-08T10:45:16.410Z,100619.81
2022-08-08T10:47:48.263Z,100615.06
2022-08-08T10:50:20.907Z,100617.63
2022-08-08T10:52:51.507Z,100602.41
2022-08-08T10:55:39.718Z,100606.66
2022-08-08T10:58:09.578Z,100592.53
2022-08-08T11:00:53.351Z,100596.56
2022-08-08T11:04:00.774Z,100598.66
2022-08-08T11:06:31.502Z,100602.88
2022-08-08T11:09:14.946Z,100591.94
2022-08-08T11:12:06.064Z,100596.41
2022-08-08T11:14:34.793Z,100603.38
2022-08-08T11:17:03.847Z,100587.59
2022-08-08T11:19:33.802Z,100592.00
2022-08-08T11:22:04.099Z,100594.50
2022-08-08T11:24:35.607Z,100584.22
2022-08-08T11:27:10.755Z,100590.34
2022-08-08T11:30:18.601Z,100603.72
2022-08-08T11:32:42.509Z,100596.53
2022-08-08T11:35:25.975Z,100598.97
2022-08-08T11:38:39.037Z,100596.00
2022-08-08T11:40:52.585Z,100596.28
2022-08-08T11:43:24.392Z,100596.66
2022-08-08T11:46:09.938Z,100588.69
2022-08-08T11:48:41.223Z,100589.75
2022-08-08T11:51:38.918Z,100595.44
2022-08-08T11:54:01.150Z,100589.66
2022-08-08T11:56:34.957Z,100582.94
2022-08-08T11:59:12.003Z,100574.47
2022-08-08T12:01:39.392Z,100584.66
2022-08-08T12:04:08.607Z,100582.06
2022-08-08T12:06:35.659Z,100578.28
2022-08-08T12:09:09.775Z,100573.00
2022-08-08T12:11:45.993Z,100582.22
2022-08-08T12:14:28.975Z,100573.09
2022-08-08T12:16:57.300Z,100580.16
2022-08-08T12:19:37.386Z,100584.78
2022-08-08T12:22:20.582Z,100571.41
2022-08-08T12:24:54.302Z,100567.59
2022-08-08T12:27:26.582Z,100563.19
2022-08-08T12:30:02.183Z,100568.00
2022-08-08T12:32:31.137Z,100571.78
2022-08-08T12:35:13.251Z,100568.00
2022-08-08T12:38:01.900Z,100561.31
2022-08-08T12:40:56.815Z,100568.31
2022-08-08T12:43:40.194Z,100570.00
2022-08-08T12:46:26.165Z,100570.03
2022-08-08T12:49:25.227Z,100564.13
2022-08-08T12:51:59.266Z,100561.00
2022-08-08T12:54:33.113Z,100571.06
2022-08-08T12:57:00.864Z,100565.66
2022-08-08T12:59:44.524Z,100557.22
2022-08-08T13:02:28.347Z,100562.94
2022-08-08T13:04:58.214Z,100557.63
2022-08-08T13:08:03.461Z,100554.28
2022-08-08T13:10:36.642Z,100555.25
2022-08-08T13:13:37.225Z,100556.31
2022-08-08T13:16:25.944Z,100544.59
2022-08-08T13:18:57.222Z,100540.56
2022-08-08T13:21:48.570Z,100543.97
2022-08-08T13:24:18.999Z,100541.25
2022-08-08T13:27:04.855Z,100535.44
2022-08-08T13:29:37.982Z,100543.28
2022-08-08T13:32:10.912Z,100537.06
2022-08-08T13:34:40.213Z,100532.63
2022-08-08T13:37:10.990Z,100545.56
2022-08-08T13:39:55.344Z,100536.69
2022-08-08T13:42:24.301Z,100534.97
2022-08-08T13:44:56.519Z,100551.19
2022-08-08T13:47:23.924Z,100528.91
2022-08-08T13:50:36.439Z,100534.34
2022-08-08T13:52:48.916Z,100531.13
2022-08-08T13:55:29.473Z,100523.09
2022-08-08T13:58:07.798Z,100530.28
2022-08-08T14:00:40.420Z,100522.78
2022-08-08T14:03:47.167Z,100526.50
2022-08-08T14:06:33.709Z,100524.47
2022-08-08T14:08:58.870Z,100523.88
2022-08-08T14:11:28.373Z,100527.38
2022-08-08T14:14:00.264Z,100517.59
2022-08-08T14:16:28.149Z,100526.53
2022-08-08T14:18:58.070Z,100523.56
2022-08-08T14:21:52.324Z,100528.72
2022-08-08T14:24:34.255Z,100531.31
2022-08-08T14:27:01.588Z,100522.91
2022-08-08T14:29:30.440Z,100516.59
2022-08-08T14:32:10.564Z,100520.34
2022-08-08T14:34:42.711Z,100511.47
2022-08-08T14:37:12.822Z,100511.81
2022-08-08T14:40:10.879Z,100510.75
2022-08-08T14:42:55.290Z,100511.78
2022-08-08T14:45:33.412Z,100510.94
2022-08-08T14:48:27.429Z,100500.88
2022-08-08T14:51:07.225Z,100505.78
2022-08-08T14:53:55.912Z,100499.34
2022-08-08T14:56:27.400Z,100509.41
2022-08-08T14:58:56.591Z,100508.75
2022-08-08T15:01:37.267Z,100510.03
2022-08-08T15:04:09.537Z,100500.84
2022-08-08T15:06:37.600Z,100500.13
2022-08-08T15:09:07.174Z,100497.06
2022-08-08T15:11:43.406Z,100497.63
2022-08-08T15:14:20.732Z,100500.03
2022-08-08T15:16:52.301Z,100490.81
2022-08-08T15:19:19.434Z,100497.41
2022-08-08T15:21:47.175Z,100489.81
2022-08-08T15:24:16.079Z,100497.78
2022-08-08T15:26:52.368Z,100493.34
2022-08-08T15:29:22.450Z,100493.91
2022-08-08T15:32:19.019Z,100500.44
2022-08-08T15:34:38.853Z,100492.50
2022-08-08T15:37:07.618Z,100489.66
2022-08-08T15:39:38.271Z,100494.28
2022-08-08T15:42:13.210Z,100499.94
2022-08-08T15:44:45.761Z,100491.53
2022-08-08T15:47:15.261Z,100492.50
2022-08-08T15:49:47.814Z,100495.69
2022-08-08T15:52:17.513Z,100509.94
2022-08-08T15:54:51.456Z,100506.53
2022-08-08T15:57:19.406Z,100509.88
2022-08-08T16:00:06.224Z,100505.28
2022-08-08T16:02:44.574Z,100515.50
2022-08-08T16:05:23.764Z,100506.19
2022-08-08T16:07:53.908Z,100514.06
2022-08-08T16:13:04.682Z,100513.88
2022-08-08T16:13:32.240Z,100510.94
2022-08-08T16:16:17.268Z,100506.81
2022-08-08T16:18:56.322Z,100510.84
2022-08-08T16:21:30.846Z,100523.81
2022-08-08T16:24:01.964Z,100517.84
2022-08-08T16:26:32.977Z,100516.41
2022-08-08T16:29:16.140Z,100504.94
2022-08-08T16:31:48.958Z,100515.56
2022-08-08T16:34:19.792Z,100512.69
2022-08-08T16:36:50.262Z,100518.22
2022-08-08T16:40:01.428Z,100522.44
2022-08-08T16:42:05.934Z,100515.00
2022-08-08T16:44:33.682Z,100523.81
2022-08-08T16:47:31.702Z,100519.50
2022-08-08T16:50:15.209Z,100517.59
2022-08-08T16:55:00.059Z,100526.75
2022-08-08T16:55:55.518Z,100531.78
2022-08-08T16:58:26.860Z,100529.22
2022-08-08T17:00:59.084Z,100532.63
2022-08-08T17:03:59.985Z,100541.63
2022-08-08T17:06:35.296Z,100534.94
2022-08-08T17:09:02.410Z,100536.88
2022-08-08T17:11:39.275Z,100536.06
2022-08-08T17:14:18.903Z,100544.47
2022-08-08T17:16:51.747Z,100542.47
2022-08-08T17:19:25.210Z,100544.19
2022-08-08T17:21:52.180Z,100545.03
2022-08-08T17:24:28.025Z,100554.59
2022-08-08T17:26:58.813Z,100560.75
2022-08-08T17:29:27.507Z,100558.81
2022-08-08T17:31:57.449Z,100571.19
2022-08-08T17:34:53.450Z,100574.75
2022-08-08T17:37:13.625Z,100574.06
2022-08-08T17:40:03.211Z,100573.06
2022-08-08T17:42:28.124Z,100572.69
2022-08-08T17:44:58.551Z,100573.63
2022-08-08T17:47:40.115Z,100574.97
2022-08-08T17:50:09.675Z,100572.97
2022-08-08T17:52:38.449Z,100579.53
2022-08-08T17:56:05.299Z,100585.16
2022-08-08T17:57:59.006Z,100594.56
2022-08-08T18:00:30.723Z,100593.78
2022-08-08T18:03:08.723Z,100602.28
2022-08-08T18:05:48.501Z,100601.56
2022-08-08T18:08:24.704Z,100600.13
2022-08-08T18:11:11.567Z,100618.88
2022-08-08T18:13:41.919Z,100619.59
2022-08-08T18:16:10.353Z,100617.16
2022-08-08T18:18:45.265Z,100610.38
2022-08-08T18:21:35.082Z,100624.09
2022-08-08T18:24:17.373Z,100624.72
2022-08-08T18:26:53.873Z,100613.25
2022-08-08T18:29:30.237Z,100614.91
2022-08-08T18:32:03.506Z,100624.88
2022-08-08T18:34:32.930Z,100621.22
2022-08-08T18:37:04.695Z,100631.56
2022-08-08T18:39:35.656Z,100632.53
2022-08-08T18:42:12.949Z,100627.19
2022-08-08T18:44:42.177Z,100626.06
2022-08-08T18:47:09.267Z,100620.78
2022-08-08T18:49:58.071Z,100619.28
2022-08-08T18:52:24.123Z,100620.25
2022-08-08T18:55:00.897Z,100627.75
2022-08-08T18:57:44.733Z,100618.81
2022-08-08T19:00:15.619Z,100625.19
2022-08-08T19:02:55.459Z,100631.31
2022-08-08T19:05:34.006Z,100622.41
2022-08-08T19:08:29.186Z,100624.44
2022-08-08T19:11:02.181Z,100623.22
2022-08-08T19:13:53.014Z,100616.47
2022-08-08T19:16:20.163Z,100618.84
2022-08-08T19:18:53.416Z,100615.69
2022-08-08T19:21:30.291Z,100617.88
2022-08-08T19:23:58.437Z,100612.91
2022-08-08T19:26:30.903Z,100612.31
2022-08-08T19:29:00.483Z,100619.00
2022-08-08T19:31:31.544Z,100621.00
2022-08-08T19:34:35.696Z,100616.09
2022-08-08T19:36:55.346Z,100615.13
2022-08-08T19:39:25.454Z,100620.91
2022-08-08T19:41:58.011Z,100614.13
2022-08-08T19:44:42.523Z,100612.78
2022-08-08T19:47:12.347Z,100616.09
2022-08-08T19:49:39.771Z,100608.94
2022-08-08T19:52:13.293Z,100611.78
2022-08-08T19:54:43.156Z,100611.63
2022-08-08T19:57:11.290Z,100610.22
2022-08-08T19:59:43.721Z,100617.91
2022-08-08T20:02:12.024Z,100614.94
2022-08-08T20:04:39.198Z,100608.03
2022-08-08T20:08:31.102Z,100609.97
2022-08-08T20:09:59.029Z,100607.59
2022-08-08T20:12:32.415Z,100603.50
2022-08-08T20:15:16.557Z,100594.53
2022-08-08T20:17:46.916Z,100605.50
2022-08-08T20:20:19.602Z,100608.22
2022-08-08T20:22:54.033Z,100602.94
2022-08-08T20:25:26.367Z,100605.38
2022-08-08T20:27:59.379Z,100609.13
2022-08-08T20:30:53.871Z,100597.34
2022-08-08T20:35:58.788Z,100593.06
2022-08-08T20:38:32.387Z,100588.97
2022-08-08T20:41:05.897Z,100594.91
2022-08-08T20:43:48.168Z,100601.31
2022-08-08T20:46:16.639Z,100604.31
2022-08-08T20:48:44.474Z,100600.06
2022-08-08T20:51:11.443Z,100599.84
2022-08-08T20:53:59.360Z,100588.44
2022-08-08T20:56:35.929Z,100588.53
2022-08-08T20:59:09.050Z,100582.50
2022-08-08T21:02:05.661Z,100584.84
2022-08-08T21:04:27.710Z,100594.22
2022-08-08T21:06:55.468Z,100598.66
2022-08-08T21:09:23.086Z,100605.13
2022-08-08T21:12:02.874Z,100602.44
2022-08-08T21:14:34.697Z,100596.13
2022-08-08T21:17:06.763Z,100590.59
2022-08-08T21:19:46.102Z,100580.56
2022-08-08T21:22:15.781Z,100576.00
2022-08-08T21:24:52.769Z,100575.47
2022-08-08T21:28:06.551Z,100572.69
2022-08-08T21:30:17.882Z,100576.44
2022-08-08T21:32:52.522Z,100578.84
2022-08-08T21:36:16.239Z,100573.63
2022-08-08T21:38:16.687Z,100570.94
2022-08-08T21:40:55.052Z,100572.94
2022-08-08T21:43:33.336Z,100571.19
2022-08-08T21:48:05.024Z,100574.78
2022-08-08T21:48:55.296Z,100572.25
2022-08-08T21:54:22.800Z,100560.13
2022-08-08T21:54:32.000Z,100561.03
2022-08-08T21:57:01.192Z,100555.03
2022-08-08T22:00:01.825Z,100560.66
2022-08-08T22:02:22.916Z,100553.91
2022-08-08T22:04:56.037Z,100556.91
2022-08-08T22:07:39.512Z,100547.91
2022-08-08T22:10:09.611Z,100556.56
2022-08-08T22:12:38.927Z,100560.69
2022-08-08T22:15:07.654Z,100548.75
2022-08-08T22:17:41.425Z,100563.56
2022-08-08T22:20:18.789Z,100552.69
2022-08-08T22:22:51.086Z,100552.47
2022-08-08T22:25:25.269Z,100548.28
2022-08-08T22:28:02.666Z,100539.13
2022-08-08T22:30:32.606Z,100531.34
2022-08-08T22:33:01.559Z,100540.84
2022-08-08T22:36:05.206Z,100540.09
2022-08-08T22:38:17.676Z,100540.41
2022-08-08T22:40:45.038Z,100559.94
2022-08-08T22:43:15.704Z,100576.44
2022-08-08T22:45:46.596Z,100585.75
2022-08-08T22:48:21.791Z,100594.78
2022-08-08T22:50:49.685Z,100596.22
2022-08-08T22:54:32.305Z,100596.78
2022-08-08T22:56:05.285Z,100581.44
2022-08-08T22:58:34.215Z,100582.25
2022-08-08T23:02:00.570Z,100570.06
2022-08-08T23:03:56.437Z,100564.19
2022-08-08T23:06:25.481Z,100558.78
2022-08-08T23:08:55.683Z,100555.34
2022-08-08T23:11:31.269Z,100548.50
2022-08-08T23:14:18.683Z,100552.16
2022-08-08T23:16:54.744Z,100533.72
2022-08-08T23:19:26.044Z,100528.44
2022-08-08T23:21:53.404Z,100530.06
2022-08-08T23:24:22.513Z,100536.63
2022-08-08T23:26:53.446Z,100529.28
2022-08-08T23:29:24.894Z,100526.25
2022-08-08T23:31:52.215Z,100525.34
2022-08-08T23:34:20.028Z,100533.06
2022-08-08T23:36:48.518Z,100521.78
2022-08-08T23:39:15.818Z,100523.56
2022-08-08T23:41:46.927Z,100527.69
2022-08-08T23:44:18.654Z,100523.16
2022-08-08T23:49:04.329Z,100517.28
2022-08-08T23:49:35.423Z,100513.06
2022-08-08T23:52:04.941Z,100512.66
2022-08-08T23:54:53.428Z,100518.25
2022-08-08T23:57:38.783Z,100522.94
